Time;durP1;ratioP1;P1;durP2;ratioP2;P2;SDS_P1;SDS_P2;PMS_P1;PMS_P2;Temp;Humidity;BMP_temperature;BMP_pressure;BME280_temperature;BME280_humidity;BME280_pressure;Samples;Min_cycle;Max_cycle;Signal;HPM_P1;HPM_P2
2022/02/03 00:01:07;;;;;;;28.33;23.70;;;10.40;88.00;;;;;;5133511;27;20495;-69
2022/02/03 00:03:50;;;;;;;29.10;23.02;;;10.40;88.00;;;;;;5136544;27;20468;-69
2022/02/03 00:06:23;;;;;;;34.83;25.75;;;10.40;88.20;;;;;;5113321;28;20020;-71
2022/02/03 00:22:15;;;;;;;31.58;25.45;;;10.30;88.60;;;;;;5117516;27;20454;-70
2022/02/03 00:25:18;;;;;;;31.67;25.15;;;10.30;88.70;;;;;;5117537;27;20102;-70
2022/02/03 00:27:58;;;;;;;31.42;25.90;;;10.30;88.90;;;;;;5105088;27;20590;-70
2022/02/03 00:30:57;;;;;;;32.17;25.50;;;10.30;89.00;;;;;;5133056;27;20417;-70
2022/02/03 00:49:07;;;;;;;34.10;26.85;;;10.20;89.10;;;;;;5132553;27;20449;-69
2022/02/03 00:51:34;;;;;;;36.00;28.90;;;10.20;89.20;;;;;;5131547;27;20020;-69
2022/02/03 00:54:00;;;;;;;34.00;26.80;;;10.20;89.30;;;;;;5130986;27;20052;-69
2022/02/03 00:56:39;;;;;;;37.03;29.65;;;10.20;89.50;;;;;;5131971;27;20331;-69
2022/02/03 00:59:09;;;;;;;37.47;28.95;;;10.20;89.60;;;;;;5126483;27;20425;-69
2022/02/03 01:01:39;;;;;;;34.53;28.92;;;10.20;89.40;;;;;;5131930;27;20551;-69
2022/02/03 01:04:09;;;;;;;33.35;28.15;;;10.20;89.50;;;;;;5131425;27;20029;-69
2022/02/03 01:06:39;;;;;;;41.97;31.25;;;10.20;89.50;;;;;;5131965;27;20130;-69
2022/02/03 01:09:08;;;;;;;35.80;28.98;;;10.20;89.50;;;;;;5132512;27;20115;-69
2022/02/03 01:11:42;;;;;;;37.25;30.17;;;10.20;89.50;;;;;;5130673;27;20019;-69
2022/02/03 01:14:13;;;;;;;37.95;29.67;;;10.20;90.00;;;;;;5131898;27;20119;-69
2022/02/03 01:33:44;;;;;;;41.17;30.95;;;10.20;89.50;;;;;;5133623;27;20090;-69
2022/02/03 01:45:03;;;;;;;41.17;31.88;;;10.20;89.50;;;;;;5121272;27;20050;-69
2022/02/03 01:52:42;;;;;;;41.08;31.77;;;10.10;89.80;;;;;;5123851;27;20040;-68
2022/02/03 01:55:11;;;;;;;42.67;33.97;;;10.10;90.00;;;;;;5125525;27;20027;-70
2022/02/03 01:58:00;;;;;;;43.58;33.83;;;10.10;90.00;;;;;;5115683;27;20054;-69
2022/02/03 02:00:26;;;;;;;42.15;32.85;;;10.10;89.90;;;;;;5136637;27;20027;-69
2022/02/03 02:03:10;;;;;;;41.67;32.90;;;10.10;89.90;;;;;;5116799;27;20035;-69
2022/02/03 02:06:07;;;;;;;45.05;33.45;;;10.10;89.90;;;;;;5110278;27;20037;-70
2022/02/03 02:08:57;;;;;;;46.97;36.35;;;10.10;89.80;;;;;;5091874;28;20513;-72
2022/02/03 02:39:20;;;;;;;49.13;36.08;;;10.10;89.90;;;;;;5122064;27;20404;-70
2022/02/03 02:45:02;;;;;;;46.83;34.35;;;10.10;89.80;;;;;;5116562;27;20037;-69
2022/02/03 02:48:08;;;;;;;50.90;35.83;;;10.10;89.80;;;;;;5127625;27;20051;-70
2022/02/03 02:51:01;;;;;;;50.03;35.17;;;10.10;89.80;;;;;;5120388;27;20027;-69
2022/02/03 02:54:00;;;;;;;;;;;10.00;89.90;;;;;;5129732;27;20047;-69
2022/02/03 02:56:36;;;;;;;50.53;37.08;;;10.00;89.90;;;;;;5128202;27;19911;-69
2022/02/03 03:30:03;;;;;;;52.20;35.13;;;9.90;89.20;;;;;;5125650;28;20108;-68
2022/02/03 03:38:10;;;;;;;46.88;32.45;;;9.80;89.10;;;;;;5126291;28;20084;-68
2022/02/03 03:40:41;;;;;;;44.72;31.58;;;9.80;89.60;;;;;;5129429;28;20026;-68
2022/02/03 03:43:11;;;;;;;44.38;30.85;;;9.80;88.90;;;;;;5129256;28;20042;-68
2022/02/03 03:45:45;;;;;;;47.50;31.83;;;9.80;88.80;;;;;;5127259;27;20019;-68
2022/02/03 03:48:16;;;;;;;44.78;31.42;;;9.80;88.60;;;;;;5129626;28;20079;-70
2022/02/03 03:50:48;;;;;;;44.83;28.83;;;9.80;88.50;;;;;;5139303;27;20027;-69
2022/02/03 03:53:24;;;;;;;46.88;29.73;;;9.80;88.30;;;;;;5113246;28;20523;-70
2022/02/03 04:41:10;;;;;;;38.75;25.45;;;9.70;87.40;;;;;;5132277;27;20107;-69
2022/02/03 04:44:19;;;;;;;31.38;23.60;;;9.70;87.20;;;;;;5132878;27;20058;-69
2022/02/03 04:56:15;;;;;;;35.40;25.52;;;9.70;87.30;;;;;;5133661;27;20372;-68
2022/02/03 05:05:08;;;;;;;32.92;24.67;;;9.70;87.10;;;;;;5132290;27;20031;-67
2022/02/03 05:17:12;;;;;;;30.10;22.48;;;9.70;86.80;;;;;;5048622;28;20112;-67
2022/02/03 05:23:01;;;;;;;24.38;17.95;;;9.70;86.40;;;;;;5131658;27;20035;-69
2022/02/03 06:15:11;;;;;;;20.75;16.10;;;9.50;84.80;;;;;;5131121;27;20083;-68
2022/02/03 06:21:08;;;;;;;19.08;15.18;;;9.50;84.60;;;;;;5110115;28;19927;-68
2022/02/03 06:23:42;;;;;;;19.92;14.43;;;9.40;84.50;;;;;;5119036;27;20035;-68
2022/02/03 06:29:01;;;;;;;;;;;9.40;84.30;;;;;;5131034;27;20395;-68
2022/02/03 06:31:27;;;;;;;16.90;12.52;;;9.50;84.20;;;;;;5130899;27;20420;-68
2022/02/03 06:33:54;;;;;;;19.15;13.35;;;9.40;84.10;;;;;;5108407;27;20117;-68
2022/02/03 06:36:20;;;;;;;19.90;13.55;;;9.50;84.30;;;;;;5112985;27;20046;-68
2022/02/03 06:38:46;;;;;;;17.85;13.05;;;9.50;84.00;;;;;;5123551;27;20031;-68
2022/02/03 06:41:12;;;;;;;16.73;12.52;;;9.50;84.00;;;;;;5111665;27;20084;-68
2022/02/03 06:43:38;;;;;;;18.48;12.02;;;9.50;84.00;;;;;;5129983;27;20019;-67
2022/02/03 06:46:11;;;;;;;13.77;11.10;;;9.50;83.90;;;;;;5128080;27;20027;-67
2022/02/03 06:48:38;;;;;;;14.77;10.90;;;9.40;83.80;;;;;;5128044;27;20035;-68
2022/02/03 06:51:11;;;;;;;15.23;9.63;;;9.50;83.70;;;;;;5128797;27;20019;-68
2022/02/03 06:53:40;;;;;;;12.85;9.10;;;9.50;83.50;;;;;;5120678;27;20494;-68
2022/02/03 06:56:15;;;;;;;12.50;8.45;;;9.40;83.50;;;;;;5130421;27;20027;-68
2022/02/03 06:58:47;;;;;;;14.32;8.00;;;9.50;83.50;;;;;;5129777;27;20034;-68
2022/02/03 07:01:19;;;;;;;9.63;6.68;;;9.50;83.30;;;;;;5129271;27;20027;-68
2022/02/03 07:03:57;;;;;;;10.90;6.38;;;9.50;83.20;;;;;;5130173;27;20039;-68
2022/02/03 07:06:23;;;;;;;12.20;6.95;;;9.50;83.30;;;;;;5131184;27;20027;-68
2022/02/03 07:08:50;;;;;;;11.38;5.90;;;9.50;83.10;;;;;;5107665;28;20051;-69
2022/02/03 07:11:19;;;;;;;10.48;5.70;;;9.40;82.80;;;;;;5129611;27;20040;-68
2022/02/03 07:13:45;;;;;;;9.32;5.25;;;9.40;82.90;;;;;;5112435;28;20032;-68
2022/02/03 07:16:11;;;;;;;10.68;4.80;;;9.40;83.00;;;;;;5131174;28;20058;-68
2022/02/03 07:18:36;;;;;;;10.75;5.22;;;9.40;82.90;;;;;;5110841;28;20110;-68
2022/02/03 07:21:02;;;;;;;10.25;5.10;;;9.40;82.80;;;;;;5107303;28;20136;-68
2022/02/03 07:23:28;;;;;;;9.10;5.28;;;9.40;82.60;;;;;;5097950;28;20115;-68
2022/02/03 07:25:54;;;;;;;9.32;4.70;;;9.40;82.40;;;;;;5084236;28;20086;-68
2022/02/03 07:28:19;;;;;;;8.07;4.28;;;9.40;82.30;;;;;;5061383;28;20511;-69
2022/02/03 07:30:45;;;;;;;8.05;4.57;;;9.40;82.50;;;;;;5096603;28;20032;-68
2022/02/03 07:33:12;;;;;;;6.78;4.10;;;9.30;82.40;;;;;;5098758;28;20476;-68
2022/02/03 07:35:38;;;;;;;11.57;4.57;;;9.30;82.50;;;;;;5106021;28;20473;-68
2022/02/03 07:38:07;;;;;;;9.75;5.03;;;9.30;82.40;;;;;;5087823;28;20047;-68
2022/02/03 07:40:33;;;;;;;9.95;5.13;;;9.40;82.30;;;;;;5088599;28;20096;-68
2022/02/03 07:43:02;;;;;;;10.32;5.85;;;9.30;82.10;;;;;;5082455;28;20035;-68
2022/02/03 07:45:30;;;;;;;13.15;5.53;;;9.40;82.10;;;;;;5071213;28;20485;-69
2022/02/03 07:47:55;;;;;;;9.40;4.90;;;9.30;82.00;;;;;;5109160;28;20028;-68
2022/02/03 07:50:21;;;;;;;11.68;5.80;;;9.30;81.90;;;;;;5109220;28;20039;-69
2022/02/03 07:52:47;;;;;;;10.45;6.15;;;9.30;82.10;;;;;;5095796;28;20136;-69
2022/02/03 07:55:14;;;;;;;9.18;6.35;;;9.30;81.90;;;;;;5111425;28;20387;-68
2022/02/03 07:57:45;;;;;;;10.57;6.18;;;9.30;81.90;;;;;;5107102;28;20016;-68
2022/02/03 08:00:11;;;;;;;9.77;6.45;;;9.30;82.00;;;;;;5079371;28;20407;-69
2022/02/03 08:02:41;;;;;;;12.93;7.22;;;9.40;81.90;;;;;;5109768;28;20500;-68
2022/02/03 08:05:07;;;;;;;9.40;7.65;;;9.40;81.80;;;;;;5092786;28;20039;-68
2022/02/03 08:07:34;;;;;;;10.30;6.65;;;9.30;81.60;;;;;;5074352;28;20048;-68
2022/02/03 08:10:06;;;;;;;10.57;7.55;;;9.30;81.70;;;;;;5112454;28;20038;-68
2022/02/03 08:12:35;;;;;;;13.03;7.37;;;9.30;81.80;;;;;;5094165;28;20046;-69
2022/02/03 08:15:02;;;;;;;14.85;7.93;;;9.30;81.90;;;;;;5107726;28;20032;-69
2022/02/03 08:17:46;;;;;;;13.30;8.13;;;9.30;81.70;;;;;;5092419;28;20027;-69
2022/02/03 08:20:16;;;;;;;10.98;8.13;;;9.30;81.50;;;;;;5077104;28;20491;-69
2022/02/03 08:22:53;;;;;;;13.43;8.50;;;9.30;81.40;;;;;;5092232;28;20031;-69
2022/02/03 08:25:25;;;;;;;15.60;8.48;;;9.30;81.50;;;;;;5109617;28;20031;-69
2022/02/03 08:32:54;;;;;;;11.98;8.05;;;9.30;81.10;;;;;;5112271;28;20055;-69
2022/02/03 08:35:32;;;;;;;10.98;7.60;;;9.30;81.10;;;;;;5109883;28;20026;-69
2022/02/03 08:38:06;;;;;;;11.93;8.32;;;9.30;81.20;;;;;;5114164;28;20078;-70
2022/02/03 08:40:44;;;;;;;16.13;9.35;;;9.30;81.00;;;;;;5113198;28;20031;-69
2022/02/03 08:43:14;;;;;;;11.70;8.40;;;9.30;80.90;;;;;;5108551;28;20583;-69
2022/02/03 08:45:41;;;;;;;13.85;9.05;;;9.30;80.80;;;;;;5104306;28;20349;-69
2022/02/03 08:48:06;;;;;;;15.40;8.38;;;9.30;80.50;;;;;;5111764;28;20066;-69
2022/02/03 08:50:34;;;;;;;14.07;8.85;;;9.30;80.50;;;;;;5106784;28;20457;-69
2022/02/03 08:53:49;;;;;;;17.70;9.48;;;9.30;80.50;;;;;;5092101;28;20050;-69
2022/02/03 08:56:03;;;;;;;13.48;8.20;;;9.30;80.60;;;;;;5084106;28;20040;-69
2022/02/03 09:50:07;;;;;;;14.82;9.13;;;9.20;80.50;;;;;;5067672;28;20032;-68
2022/02/03 09:55:56;;;;;;;10.52;8.30;;;9.20;80.30;;;;;;5129415;27;20024;-69
2022/02/03 09:58:25;;;;;;;13.35;8.68;;;9.20;80.20;;;;;;5124912;27;20027;-69
2022/02/03 10:08:28;;;;;;;13.23;8.63;;;9.20;80.20;;;;;;5115782;27;20492;-70
2022/02/03 10:11:32;;;;;;;10.95;8.93;;;9.10;80.20;;;;;;5128963;27;20027;-69
2022/02/03 10:14:03;;;;;;;14.77;9.55;;;9.10;80.20;;;;;;5113401;27;20032;-69
2022/02/03 10:16:37;;;;;;;16.75;8.57;;;9.10;80.40;;;;;;5127909;27;20027;-69
2022/02/03 10:19:16;;;;;;;12.73;8.32;;;9.10;80.80;;;;;;5127818;27;20027;-69
2022/02/03 10:21:43;;;;;;;12.50;8.88;;;9.00;81.00;;;;;;5127326;27;20089;-69
2022/02/03 10:24:15;;;;;;;12.32;8.85;;;9.00;81.20;;;;;;5108188;27;20491;-69
2022/02/03 10:26:48;;;;;;;15.02;9.40;;;9.00;81.40;;;;;;5129543;27;20767;-69
2022/02/03 10:29:19;;;;;;;16.08;10.00;;;9.00;81.60;;;;;;5126707;27;20065;-69
2022/02/03 10:31:45;;;;;;;13.68;8.65;;;9.00;81.80;;;;;;5130260;27;20079;-69
2022/02/03 10:34:15;;;;;;;12.05;8.75;;;9.00;82.00;;;;;;5124119;27;20037;-69
2022/02/03 10:59:35;;;;;;;12.38;8.10;;;9.00;82.10;;;;;;5008001;28;20554;-69
2022/02/03 11:07:28;;;;;;;16.20;8.13;;;9.00;81.70;;;;;;5076422;27;20072;-69
2022/02/03 11:10:05;;;;;;;14.50;8.23;;;9.00;81.80;;;;;;5129364;27;20055;-69
2022/02/03 11:12:31;;;;;;;15.13;9.02;;;9.00;81.80;;;;;;5105881;28;20080;-69
2022/02/03 11:15:00;;;;;;;15.10;8.43;;;9.00;81.70;;;;;;5131399;27;20084;-68
2022/02/03 11:17:27;;;;;;;18.70;9.25;;;9.10;81.50;;;;;;5097151;27;20282;-69
2022/02/03 11:19:57;;;;;;;11.93;7.75;;;9.10;81.30;;;;;;5124771;28;20035;-70
2022/02/03 11:22:30;;;;;;;17.92;8.23;;;9.10;81.90;;;;;;5111131;28;20363;-70
2022/02/03 11:25:17;;;;;;;13.00;7.75;;;9.10;81.10;;;;;;5126255;28;20069;-69
2022/02/03 11:28:12;;;;;;;14.13;7.43;;;9.10;81.00;;;;;;5131627;27;20046;-69
2022/02/03 11:50:20;;;;;;;19.30;8.80;;;9.10;80.40;;;;;;5113316;28;20572;-69
2022/02/03 12:20:57;;;;;;;12.98;8.75;;;9.10;79.50;;;;;;5132690;27;20112;-69
2022/02/03 12:26:17;;;;;;;17.75;9.40;;;9.20;79.50;;;;;;5125059;27;20391;-70
2022/02/03 12:28:54;;;;;;;13.27;8.45;;;9.20;79.40;;;;;;5132028;27;20038;-69
2022/02/03 12:31:51;;;;;;;13.98;9.10;;;9.30;79.30;;;;;;5130535;27;20592;-69
2022/02/03 12:37:11;;;;;;;14.77;8.77;;;9.30;79.10;;;;;;5130188;27;20085;-69
2022/02/03 12:44:50;;;;;;;15.02;8.27;;;9.30;78.50;;;;;;5132948;27;20476;-69
2022/02/03 12:47:15;;;;;;;15.07;8.45;;;9.30;78.50;;;;;;5132050;27;20031;-69
2022/02/03 12:49:41;;;;;;;15.48;8.75;;;9.20;78.20;;;;;;5130527;27;20035;-69
2022/02/03 12:52:27;;;;;;;14.60;8.52;;;9.20;78.00;;;;;;5089166;28;20018;-69
2022/02/03 12:54:53;;;;;;;15.75;8.48;;;9.20;78.30;;;;;;5128684;27;20039;-69
2022/02/03 12:57:27;;;;;;;19.20;8.35;;;9.20;78.10;;;;;;5114191;27;20106;-70
2022/02/03 13:00:12;;;;;;;14.57;7.93;;;9.20;78.10;;;;;;5131762;27;20031;-69
2022/02/03 13:02:37;;;;;;;20.35;8.52;;;9.20;78.10;;;;;;5120708;27;20035;-69
2022/02/03 13:05:03;;;;;;;11.55;7.47;;;9.20;78.20;;;;;;5130123;27;20079;-69
2022/02/03 13:07:30;;;;;;;12.00;8.27;;;9.20;78.30;;;;;;5135522;27;20064;-68
2022/02/03 13:10:10;;;;;;;17.33;8.15;;;9.20;78.40;;;;;;5127363;27;20391;-68
2022/02/03 13:12:41;;;;;;;14.10;7.70;;;9.20;78.60;;;;;;5131189;27;20082;-68
2022/02/03 13:15:08;;;;;;;16.27;8.37;;;9.20;78.90;;;;;;5131761;27;20057;-68
2022/02/03 13:17:39;;;;;;;14.68;7.93;;;9.20;79.20;;;;;;5113062;27;20554;-68
2022/02/03 13:20:23;;;;;;;15.00;8.52;;;9.10;79.40;;;;;;5131482;27;20043;-67
2022/02/03 13:22:59;;;;;;;18.13;8.18;;;9.10;79.60;;;;;;5124437;27;20527;-68
2022/02/03 13:25:43;;;;;;;11.73;7.25;;;9.10;79.70;;;;;;5129480;27;20042;-67
2022/02/03 13:28:14;;;;;;;12.30;8.10;;;9.10;79.90;;;;;;5131217;27;20039;-67
2022/02/03 13:33:22;;;;;;;11.30;7.30;;;9.10;80.30;;;;;;5131065;27;20019;-68
2022/02/03 13:36:05;;;;;;;15.18;8.80;;;9.00;80.40;;;;;;5114961;27;20404;-68
2022/02/03 13:41:18;;;;;;;13.60;8.00;;;9.10;80.80;;;;;;5131794;27;20042;-68
2022/02/03 13:43:45;;;;;;;;;;;9.00;80.70;;;;;;5131771;27;20023;-68
2022/02/03 13:46:13;;;;;;;14.07;7.50;;;9.00;80.70;;;;;;5131597;27;19947;-68
2022/02/03 13:48:40;;;;;;;14.23;7.90;;;8.90;80.80;;;;;;5130551;27;20110;-68
2022/02/03 13:51:10;;;;;;;15.48;8.48;;;8.90;80.90;;;;;;5130341;27;20386;-69
2022/02/03 14:10:42;;;;;;;13.60;8.63;;;8.80;82.50;;;;;;5117504;27;20065;-69
2022/02/03 14:14:01;;;;;;;12.88;9.13;;;8.80;83.00;;;;;;5115031;27;20421;-70
2022/02/03 14:21:36;;;;;;;11.93;9.82;;;8.60;84.40;;;;;;5118695;27;20437;-71
2022/02/03 14:27:18;;;;;;;13.80;8.35;;;8.70;84.80;;;;;;5124186;27;20041;-71
2022/02/03 14:29:51;;;;;;;15.68;9.70;;;8.70;84.80;;;;;;5128309;27;20045;-71
2022/02/03 14:32:27;;;;;;;15.65;10.48;;;8.70;84.60;;;;;;5128899;27;20034;-71
2022/02/03 14:34:53;;;;;;;16.10;10.27;;;8.70;84.70;;;;;;5116836;27;20468;-71
2022/02/03 14:37:44;;;;;;;17.48;10.18;;;8.70;84.70;;;;;;5093350;27;20100;-71
2022/02/03 14:42:39;;;;;;;15.25;9.90;;;8.80;84.90;;;;;;5126546;27;20039;-71
2022/02/03 14:45:07;;;;;;;14.50;10.07;;;8.80;84.90;;;;;;5089200;27;20019;-71
2022/02/03 14:47:33;;;;;;;18.55;10.75;;;8.80;84.90;;;;;;5092987;27;20037;-71
2022/02/03 14:50:02;;;;;;;15.60;9.77;;;8.80;85.10;;;;;;5123343;27;20027;-70
2022/02/03 14:52:45;;;;;;;16.65;10.70;;;8.80;85.20;;;;;;5120234;27;20449;-72
2022/02/03 14:58:12;;;;;;;15.65;10.55;;;8.80;85.50;;;;;;5117370;27;20510;-70
2022/02/03 15:00:38;;;;;;;15.27;10.07;;;8.70;85.70;;;;;;5118065;27;20392;-70
2022/02/03 15:03:03;;;;;;;16.27;10.32;;;8.70;85.70;;;;;;5109580;27;20031;-67
2022/02/03 15:05:32;;;;;;;14.45;10.68;;;8.70;86.00;;;;;;5109832;28;20491;-68
2022/02/03 15:08:03;;;;;;;14.57;10.52;;;8.70;86.20;;;;;;5129568;27;20073;-67
2022/02/03 15:10:43;;;;;;;13.68;10.38;;;8.70;86.30;;;;;;5123910;27;20054;-69
2022/02/03 15:15:36;;;;;;;16.40;11.27;;;8.70;86.70;;;;;;5128656;28;20031;-70
2022/02/03 15:18:02;;;;;;;17.92;11.20;;;8.60;86.70;;;;;;5126819;28;20105;-70
2022/02/03 15:20:29;;;;;;;16.92;12.85;;;8.60;86.90;;;;;;5101432;28;20102;-67
2022/02/03 15:22:56;;;;;;;17.02;11.25;;;8.60;87.10;;;;;;5072690;28;20101;-69
2022/02/03 15:25:23;;;;;;;13.85;10.18;;;8.60;87.10;;;;;;5080224;28;20036;-68
2022/02/03 15:27:49;;;;;;;19.88;12.38;;;8.60;87.20;;;;;;5086070;28;20123;-69
2022/02/03 15:30:15;;;;;;;18.33;11.63;;;8.60;87.20;;;;;;5085974;28;20119;-67
2022/02/03 15:32:43;;;;;;;17.10;10.93;;;8.60;87.70;;;;;;5079634;28;20044;-70
2022/02/03 15:37:52;;;;;;;15.27;10.43;;;8.60;87.20;;;;;;5089011;28;20040;-69
2022/02/03 15:40:23;;;;;;;15.40;10.20;;;8.60;87.20;;;;;;5077134;28;20434;-70
2022/02/03 15:42:56;;;;;;;17.42;11.45;;;8.60;87.20;;;;;;5080518;28;20497;-70
2022/02/03 15:45:22;;;;;;;13.20;10.13;;;8.60;87.10;;;;;;5084278;28;20024;-69
2022/02/03 15:47:57;;;;;;;14.63;9.90;;;8.60;87.00;;;;;;5071019;28;20390;-70
2022/02/03 15:59:22;;;;;;;12.60;10.75;;;8.60;87.20;;;;;;5083486;28;20090;-70
2022/02/03 16:17:27;;;;;;;13.82;10.27;;;8.60;87.00;;;;;;5086503;28;20066;-70
2022/02/03 16:20:06;;;;;;;18.92;12.73;;;8.60;87.10;;;;;;5094735;27;20040;-68
2022/02/03 16:22:45;;;;;;;15.77;11.35;;;8.60;87.20;;;;;;5131299;27;20058;-69
2022/02/03 16:54:36;;;;;;;22.52;16.85;;;8.50;87.50;;;;;;5104535;27;20036;-69
2022/02/03 16:57:10;;;;;;;19.38;15.38;;;8.50;87.60;;;;;;5130608;27;20038;-69
2022/02/03 16:59:43;;;;;;;21.67;15.25;;;8.50;87.60;;;;;;5131449;27;20038;-69
2022/02/03 17:02:09;;;;;;;21.25;15.80;;;8.50;87.70;;;;;;5132805;27;20094;-69
2022/02/03 17:04:35;;;;;;;23.67;17.42;;;8.50;87.70;;;;;;5131687;27;20043;-69
2022/02/03 17:07:01;;;;;;;18.42;15.43;;;8.60;87.70;;;;;;5132394;27;20064;-69
2022/02/03 17:09:26;;;;;;;20.73;16.55;;;8.60;87.70;;;;;;5131797;27;20035;-69
2022/02/03 17:11:52;;;;;;;21.45;16.17;;;8.60;87.60;;;;;;5132228;27;20490;-70
2022/02/03 17:14:18;;;;;;;19.83;17.05;;;8.60;87.60;;;;;;5113765;27;20054;-69
2022/02/03 17:16:43;;;;;;;24.73;16.80;;;8.60;87.60;;;;;;5132360;27;20695;-69
2022/02/03 17:19:09;;;;;;;21.75;16.73;;;8.60;87.50;;;;;;5130779;27;20034;-69
2022/02/03 17:21:36;;;;;;;19.65;15.52;;;8.60;87.40;;;;;;5132029;27;20055;-69
2022/02/03 17:24:02;;;;;;;23.50;17.60;;;8.60;87.50;;;;;;5110441;27;20399;-69
2022/02/03 18:10:09;;;;;;;29.10;23.67;;;8.50;87.90;;;;;;5100448;27;20074;-70
2022/02/03 18:31:12;;;;;;;36.83;27.27;;;8.60;88.10;;;;;;5083731;28;20375;-68
2022/02/03 18:34:07;;;;;;;31.48;25.55;;;8.50;88.00;;;;;;5080134;28;20027;-68
2022/02/03 18:55:27;;;;;;;33.53;27.15;;;8.50;88.10;;;;;;5078009;28;20033;-68
2022/02/03 19:00:39;;;;;;;37.95;29.88;;;8.50;88.00;;;;;;5083684;28;20067;-68
2022/02/03 20:08:21;;;;;;;39.70;29.52;;;8.40;88.10;;;;;;5083740;28;20378;-67
2022/02/03 20:10:50;;;;;;;38.42;30.42;;;8.40;88.20;;;;;;5082799;28;20029;-67
2022/02/03 20:13:16;;;;;;;39.38;30.02;;;8.40;88.20;;;;;;5081882;28;20037;-67
2022/02/03 20:15:43;;;;;;;38.92;29.27;;;8.40;88.20;;;;;;5090124;28;20032;-68
2022/02/03 20:18:11;;;;;;;39.33;29.13;;;8.40;88.30;;;;;;5091682;28;20032;-67
2022/02/03 20:20:41;;;;;;;41.15;29.85;;;8.40;88.30;;;;;;5102333;27;20118;-67
2022/02/03 20:23:10;;;;;;;39.58;28.75;;;8.40;88.30;;;;;;5132716;27;20031;-67
2022/02/03 20:25:37;;;;;;;38.10;29.48;;;8.40;88.30;;;;;;5132999;27;20023;-67
2022/02/03 20:28:06;;;;;;;35.85;27.42;;;8.40;88.30;;;;;;5128989;27;20058;-67
2022/02/03 20:30:32;;;;;;;36.50;27.55;;;8.40;88.40;;;;;;5132393;27;20031;-68
2022/02/03 20:32:57;;;;;;;33.92;27.50;;;8.40;88.40;;;;;;5114069;27;20467;-68
2022/02/03 20:35:23;;;;;;;36.55;28.23;;;8.40;88.40;;;;;;5132142;27;20031;-67
2022/02/03 20:37:49;;;;;;;35.75;27.77;;;8.40;88.30;;;;;;5132479;27;20076;-68
2022/02/03 20:40:15;;;;;;;35.15;26.85;;;8.50;88.30;;;;;;5113602;27;20549;-67
2022/02/03 20:42:41;;;;;;;34.65;27.40;;;8.50;88.20;;;;;;5132085;27;20035;-67
2022/02/03 20:45:07;;;;;;;40.00;29.20;;;8.50;88.20;;;;;;5129174;27;20035;-67
2022/02/03 20:47:33;;;;;;;39.70;30.98;;;8.50;88.10;;;;;;5126282;27;20113;-67
2022/02/03 20:50:00;;;;;;;38.25;28.75;;;8.50;88.10;;;;;;5128848;27;20114;-67
2022/02/03 20:52:25;;;;;;;35.38;28.00;;;8.50;88.10;;;;;;5130679;27;20514;-67
2022/02/03 20:54:51;;;;;;;32.70;25.80;;;8.50;88.20;;;;;;5130325;27;20367;-67
2022/02/03 20:57:17;;;;;;;39.05;28.55;;;8.50;88.20;;;;;;5132897;27;20042;-67
2022/02/03 21:02:21;;;;;;;39.25;30.10;;;8.60;88.10;;;;;;5132142;27;20583;-68
2022/02/03 21:04:59;;;;;;;42.92;31.75;;;8.60;88.00;;;;;;5123026;27;20031;-67
2022/02/03 21:07:24;;;;;;;40.17;30.67;;;8.50;88.00;;;;;;5111709;27;20028;-67
2022/02/03 21:09:50;;;;;;;38.38;30.15;;;8.50;88.00;;;;;;5122617;27;20031;-67
2022/02/03 21:12:16;;;;;;;41.00;30.40;;;8.50;88.10;;;;;;5108078;27;20434;-67
2022/02/03 21:14:41;;;;;;;39.55;30.08;;;8.60;88.10;;;;;;5111761;27;20213;-67
2022/02/03 21:17:07;;;;;;;39.60;29.98;;;8.50;88.00;;;;;;5095330;27;20028;-67
2022/02/03 21:19:33;;;;;;;39.85;30.25;;;8.50;88.00;;;;;;5091967;28;20032;-67
2022/02/03 21:21:59;;;;;;;41.05;31.02;;;8.50;88.00;;;;;;5129312;27;20047;-67
2022/02/03 21:24:25;;;;;;;46.78;33.33;;;8.50;88.10;;;;;;5120722;27;20067;-67
2022/02/03 21:26:53;;;;;;;44.58;32.58;;;8.50;88.20;;;;;;5099391;27;20031;-67
2022/02/03 21:29:20;;;;;;;41.30;31.15;;;8.50;88.20;;;;;;5115331;27;20023;-67
2022/02/03 21:31:46;;;;;;;41.70;31.25;;;8.50;88.20;;;;;;5098408;27;20518;-69
2022/02/03 21:34:16;;;;;;;42.88;32.20;;;8.50;88.20;;;;;;5118354;27;20023;-69
2022/02/03 21:36:43;;;;;;;38.70;30.08;;;8.50;88.10;;;;;;5114132;27;20046;-69
2022/02/03 21:39:09;;;;;;;45.00;32.88;;;8.50;88.20;;;;;;5111395;27;20372;-69
2022/02/03 21:41:35;;;;;;;42.67;32.50;;;8.50;88.70;;;;;;5095483;27;20034;-69
2022/02/03 21:44:02;;;;;;;43.65;33.33;;;8.50;88.20;;;;;;5120726;27;20027;-68
2022/02/03 21:46:28;;;;;;;45.38;33.35;;;8.50;88.30;;;;;;5126627;27;20015;-69
2022/02/03 21:48:54;;;;;;;48.65;35.40;;;8.50;88.20;;;;;;5127895;27;20092;-68
2022/02/03 21:51:25;;;;;;;47.38;34.13;;;8.50;88.20;;;;;;5127110;27;20019;-69
2022/02/03 21:53:52;;;;;;;47.42;34.58;;;8.50;88.20;;;;;;5129630;27;20066;-69
2022/02/03 21:56:19;;;;;;;45.67;33.25;;;8.50;88.10;;;;;;5117989;27;20027;-68
2022/02/03 21:58:45;;;;;;;43.13;33.75;;;8.50;88.20;;;;;;5100436;27;20093;-69
2022/02/03 22:01:11;;;;;;;47.63;34.35;;;8.50;88.20;;;;;;5130107;27;20129;-69
2022/02/03 22:03:36;;;;;;;46.30;34.78;;;8.50;88.30;;;;;;5122546;27;20104;-69
2022/02/03 22:06:02;;;;;;;47.35;35.00;;;8.50;88.20;;;;;;5105595;27;20031;-69
2022/02/03 22:08:28;;;;;;;45.45;34.92;;;8.60;88.30;;;;;;5128294;27;20030;-69
2022/02/03 22:10:59;;;;;;;46.03;35.00;;;8.50;88.30;;;;;;5122101;27;20023;-68
2022/02/03 22:13:33;;;;;;;46.63;34.85;;;8.60;88.30;;;;;;5126089;27;20023;-69
2022/02/03 22:16:05;;;;;;;44.08;33.70;;;8.60;88.30;;;;;;5125064;27;20484;-68
2022/02/03 22:18:30;;;;;;;42.75;32.20;;;8.60;88.30;;;;;;5128040;27;20023;-68
2022/02/03 22:21:02;;;;;;;45.20;34.75;;;8.60;88.20;;;;;;5129788;27;20054;-69
2022/02/03 22:44:26;;;;;;;44.80;34.47;;;8.50;88.20;;;;;;5126894;27;20132;-67
2022/02/03 22:47:05;;;;;;;46.58;33.40;;;8.50;88.20;;;;;;5116884;27;21047;-68
2022/02/03 22:49:31;;;;;;;42.10;32.75;;;8.60;88.20;;;;;;5106277;27;20031;-67
2022/02/03 22:51:57;;;;;;;44.33;31.92;;;8.50;88.20;;;;;;5124652;27;20024;-67
2022/02/03 22:54:22;;;;;;;44.47;32.83;;;8.50;88.20;;;;;;5104903;27;20495;-67
2022/02/03 22:56:48;;;;;;;44.88;33.38;;;8.60;88.20;;;;;;5104528;27;20471;-67
2022/02/03 23:02:01;;;;;;;42.28;32.42;;;8.60;88.20;;;;;;5094846;27;20070;-67
2022/02/03 23:04:27;;;;;;;43.20;32.17;;;8.50;88.20;;;;;;5111041;27;20087;-67
2022/02/03 23:06:56;;;;;;;42.20;32.75;;;8.50;88.10;;;;;;5112180;27;20038;-67
2022/02/03 23:12:16;;;;;;;43.58;31.95;;;8.50;88.20;;;;;;5128944;27;20502;-68
2022/02/03 23:20:08;;;;;;;41.10;31.55;;;8.50;88.20;;;;;;5123008;28;20517;-67
2022/02/03 23:22:37;;;;;;;45.05;34.10;;;8.50;88.20;;;;;;5107995;28;20050;-67
2022/02/03 23:25:05;;;;;;;41.53;32.05;;;8.50;88.20;;;;;;5121902;28;20046;-68
2022/02/03 23:28:01;;;;;;;41.28;31.08;;;8.50;88.20;;;;;;5129087;28;20088;-67
2022/02/03 23:30:20;;;;;;;41.83;31.73;;;8.50;88.10;;;;;;5126780;28;20099;-67
2022/02/03 23:32:48;;;;;;;42.95;31.98;;;8.60;88.10;;;;;;5129426;28;20027;-67
2022/02/03 23:35:23;;;;;;;44.13;32.75;;;8.60;88.00;;;;;;5127240;28;20076;-67
2022/02/03 23:38:16;;;;;;;47.30;33.97;;;8.60;87.90;;;;;;5110154;28;20043;-67
2022/02/03 23:46:39;;;;;;;43.30;31.80;;;8.50;87.90;;;;;;5129891;28;20579;-67
